createdAt,value
2016-07-16T00:00:52.348Z,0
2016-07-16T00:01:52.396Z,0
2016-07-16T00:02:52.379Z,0
2016-07-16T00:03:52.383Z,0
2016-07-16T00:04:52.388Z,0
2016-07-16T00:05:52.406Z,0
2016-07-16T00:06:52.400Z,0
2016-07-16T00:07:52.422Z,0
2016-07-16T00:08:52.471Z,0
2016-07-16T00:09:52.418Z,0
2016-07-16T00:10:52.436Z,0
2016-07-16T00:11:52.433Z,0
2016-07-16T00:12:52.483Z,0
2016-07-16T00:13:52.500Z,0
2016-07-16T00:14:52.471Z,0
2016-07-16T00:15:52.476Z,0
2016-07-16T00:16:52.521Z,0
2016-07-16T00:17:52.518Z,0
2016-07-16T00:18:52.492Z,0
2016-07-16T00:19:52.511Z,0
2016-07-16T00:20:52.510Z,0
2016-07-16T00:21:52.528Z,0
2016-07-16T00:22:52.528Z,0
2016-07-16T00:23:52.519Z,0
2016-07-16T00:24:52.552Z,0
2016-07-16T00:25:52.550Z,0
2016-07-16T00:26:52.564Z,0
2016-07-16T00:27:52.566Z,0
2016-07-16T00:28:52.571Z,0
2016-07-16T00:29:52.615Z,0
2016-07-16T00:30:52.603Z,0
2016-07-16T00:31:53.277Z,0
2016-07-16T00:32:52.590Z,0
2016-07-16T00:33:52.643Z,0
2016-07-16T00:34:52.625Z,0
2016-07-16T00:35:52.643Z,0
2016-07-16T00:36:52.633Z,0
2016-07-16T00:37:52.657Z,0
2016-07-16T00:38:52.642Z,0
2016-07-16T00:39:52.664Z,0
2016-07-16T00:40:52.708Z,0
2016-07-16T00:41:52.719Z,0
2016-07-16T00:42:52.653Z,0
2016-07-16T00:43:52.683Z,0
2016-07-16T00:44:52.732Z,0
2016-07-16T00:45:52.722Z,0
2016-07-16T00:46:52.738Z,0
2016-07-16T00:47:52.741Z,0
2016-07-16T00:48:52.735Z,0
2016-07-16T00:49:52.764Z,0
2016-07-16T00:50:52.744Z,0
2016-07-16T00:51:52.760Z,0
2016-07-16T00:52:52.785Z,0
2016-07-16T00:53:52.752Z,0
2016-07-16T00:54:52.782Z,0
2016-07-16T00:55:52.814Z,0
2016-07-16T00:56:52.783Z,0
2016-07-16T00:57:52.788Z,0
2016-07-16T00:58:52.865Z,0
2016-07-16T00:59:52.855Z,0
2016-07-16T01:00:52.845Z,0
2016-07-16T01:01:52.833Z,0
2016-07-16T01:02:52.847Z,0
2016-07-16T01:03:52.876Z,0
2016-07-16T01:04:52.860Z,0
2016-07-16T01:05:52.878Z,0
2016-07-16T01:06:52.877Z,0
2016-07-16T01:07:52.887Z,0
2016-07-16T01:08:52.880Z,0
2016-07-16T01:09:52.875Z,0
2016-07-16T01:10:52.901Z,0
2016-07-16T01:11:52.921Z,0
2016-07-16T01:12:52.907Z,0
2016-07-16T01:13:52.912Z,0
2016-07-16T01:14:52.925Z,0
2016-07-16T01:15:52.926Z,0
2016-07-16T01:16:53.008Z,0
2016-07-16T01:17:52.964Z,0
2016-07-16T01:18:52.989Z,0
2016-07-16T01:19:52.946Z,0
2016-07-16T01:20:52.984Z,0
2016-07-16T01:21:53.017Z,0
2016-07-16T01:22:53.045Z,0
2016-07-16T01:23:53.022Z,0
2016-07-16T01:24:53.040Z,0
2016-07-16T01:25:53.021Z,0
2016-07-16T01:26:53.050Z,0
2016-07-16T01:27:53.030Z,0
2016-07-16T01:28:53.047Z,0
2016-07-16T01:29:53.058Z,0
2016-07-16T01:30:53.081Z,0
2016-07-16T01:31:53.062Z,0
2016-07-16T01:32:53.057Z,0
2016-07-16T01:33:53.101Z,0
2016-07-16T01:34:53.099Z,0
2016-07-16T01:35:53.117Z,0
2016-07-16T01:36:53.102Z,0
2016-07-16T01:37:53.084Z,0
2016-07-16T01:38:53.104Z,0
2016-07-16T01:39:53.123Z,0
2016-07-16T01:40:53.135Z,0
2016-07-16T01:41:53.168Z,0
2016-07-16T01:42:53.143Z,0
2016-07-16T01:43:53.150Z,0
2016-07-16T01:44:53.178Z,0
2016-07-16T01:45:53.166Z,0
2016-07-16T01:46:53.209Z,0
2016-07-16T01:47:53.211Z,0
2016-07-16T01:48:53.211Z,0
2016-07-16T01:49:53.206Z,0
2016-07-16T01:50:53.221Z,0
2016-07-16T01:51:53.249Z,0
2016-07-16T01:52:53.255Z,0
2016-07-16T01:53:53.226Z,0
2016-07-16T01:54:53.234Z,0
2016-07-16T01:55:53.257Z,0
2016-07-16T01:56:53.275Z,0
2016-07-16T01:57:53.448Z,0
2016-07-16T01:58:53.266Z,0
2016-07-16T01:59:53.261Z,0
2016-07-16T02:00:53.261Z,0
2016-07-16T02:01:53.314Z,0
2016-07-16T02:02:53.298Z,0
2016-07-16T02:03:53.331Z,0
2016-07-16T02:04:53.304Z,0
2016-07-16T02:05:53.302Z,0
2016-07-16T02:06:53.372Z,0
2016-07-16T02:07:53.354Z,0
2016-07-16T02:08:53.363Z,0
2016-07-16T02:09:53.359Z,0
2016-07-16T02:10:53.373Z,0
2016-07-16T02:11:53.384Z,0
2016-07-16T02:12:53.386Z,0
2016-07-16T02:13:53.376Z,0
2016-07-16T02:14:53.389Z,0
2016-07-16T02:15:53.401Z,0
2016-07-16T02:16:53.420Z,0
2016-07-16T02:17:53.411Z,0
2016-07-16T02:18:53.437Z,0
2016-07-16T02:19:53.444Z,0
2016-07-16T02:20:53.437Z,0
2016-07-16T02:21:53.442Z,0
2016-07-16T02:22:53.467Z,0
2016-07-16T02:23:54.188Z,0
2016-07-16T02:24:53.488Z,0
2016-07-16T02:25:53.480Z,0
2016-07-16T02:26:53.472Z,0
2016-07-16T02:27:53.504Z,0
2016-07-16T02:28:53.500Z,0
2016-07-16T02:29:53.485Z,0
2016-07-16T02:30:53.530Z,0
2016-07-16T02:31:53.504Z,0
2016-07-16T02:32:53.559Z,0
2016-07-16T02:33:53.555Z,0
2016-07-16T02:34:53.544Z,0
2016-07-16T02:35:53.569Z,0
2016-07-16T02:36:53.556Z,0
2016-07-16T02:37:53.602Z,0
2016-07-16T02:38:53.598Z,0
2016-07-16T02:39:53.585Z,0
2016-07-16T02:40:53.594Z,0
2016-07-16T02:41:53.594Z,0
2016-07-16T02:42:53.630Z,0
2016-07-16T02:43:53.594Z,0
2016-07-16T02:44:53.643Z,0
2016-07-16T02:45:53.634Z,0
2016-07-16T02:46:53.619Z,0
2016-07-16T02:47:53.629Z,0
2016-07-16T02:48:53.668Z,0
2016-07-16T02:49:53.629Z,0
2016-07-16T02:50:53.643Z,0
2016-07-16T02:51:53.651Z,0
2016-07-16T02:52:53.699Z,0
2016-07-16T02:53:53.697Z,0
2016-07-16T02:54:53.732Z,0
2016-07-16T02:55:53.723Z,0
2016-07-16T02:56:53.727Z,0
2016-07-16T02:57:53.820Z,0
2016-07-16T02:58:53.733Z,0
2016-07-16T02:59:53.727Z,0
2016-07-16T03:00:53.729Z,0
2016-07-16T03:01:53.744Z,0
2016-07-16T03:02:53.741Z,0
2016-07-16T03:03:53.764Z,0
2016-07-16T03:04:53.776Z,0
2016-07-16T03:05:53.760Z,0
2016-07-16T03:06:53.814Z,0
2016-07-16T03:07:53.801Z,0
2016-07-16T03:08:53.796Z,0
2016-07-16T03:09:53.799Z,0
2016-07-16T03:10:53.849Z,0
2016-07-16T03:11:53.854Z,0
2016-07-16T03:12:53.840Z,0
2016-07-16T03:13:53.827Z,0
2016-07-16T03:14:53.853Z,0
2016-07-16T03:15:53.845Z,0
2016-07-16T03:16:53.862Z,0
2016-07-16T03:17:53.877Z,0
2016-07-16T03:18:53.894Z,0
2016-07-16T03:19:53.918Z,0
2016-07-16T03:20:53.893Z,0
2016-07-16T03:21:53.891Z,0
2016-07-16T03:22:53.896Z,0
2016-07-16T03:23:53.945Z,0
2016-07-16T03:24:53.914Z,0
2016-07-16T03:25:53.942Z,0
2016-07-16T03:26:53.954Z,0
2016-07-16T03:27:53.970Z,0
2016-07-16T03:28:53.975Z,0
2016-07-16T03:29:53.973Z,0
2016-07-16T03:30:53.974Z,0
2016-07-16T03:31:54.011Z,0
2016-07-16T03:32:54.003Z,0
2016-07-16T03:33:54.012Z,0
2016-07-16T03:34:54.023Z,0
2016-07-16T03:35:54.014Z,0
2016-07-16T03:36:54.043Z,0
2016-07-16T03:37:54.012Z,0
2016-07-16T03:38:54.051Z,0
2016-07-16T03:39:54.064Z,0
2016-07-16T03:40:54.077Z,0
2016-07-16T03:41:54.096Z,0
2016-07-16T03:42:54.066Z,0
2016-07-16T03:43:54.051Z,0
2016-07-16T03:44:54.813Z,0
2016-07-16T03:45:54.127Z,0
2016-07-16T03:46:54.092Z,0
2016-07-16T03:47:54.090Z,0
2016-07-16T03:48:54.142Z,0
2016-07-16T03:49:54.111Z,0
2016-07-16T03:50:54.143Z,0
2016-07-16T03:51:54.135Z,0
2016-07-16T03:52:54.107Z,0
2016-07-16T03:53:54.159Z,0
2016-07-16T03:54:54.130Z,0
2016-07-16T03:55:54.201Z,0
2016-07-16T03:56:54.187Z,0
2016-07-16T03:57:54.227Z,0
2016-07-16T03:58:54.200Z,0
2016-07-16T03:59:54.189Z,0
2016-07-16T04:00:54.173Z,0
2016-07-16T04:01:54.198Z,0
2016-07-16T04:02:54.219Z,0
2016-07-16T04:03:54.224Z,0
2016-07-16T04:04:54.243Z,0
2016-07-16T04:05:54.232Z,0
2016-07-16T04:06:54.244Z,0
2016-07-16T04:07:54.263Z,0
2016-07-16T04:08:54.264Z,0
2016-07-16T04:09:54.274Z,0
2016-07-16T04:10:54.279Z,0
2016-07-16T04:11:54.295Z,0
2016-07-16T04:12:54.345Z,0
2016-07-16T04:13:54.300Z,0
2016-07-16T04:14:54.299Z,0
2016-07-16T04:15:55.013Z,0
2016-07-16T04:16:54.334Z,0
2016-07-16T04:17:54.341Z,0
2016-07-16T04:18:55.107Z,0
2016-07-16T04:19:54.366Z,0
2016-07-16T04:20:54.388Z,0
2016-07-16T04:21:54.393Z,0
2016-07-16T04:22:54.350Z,0
2016-07-16T04:23:54.365Z,0
2016-07-16T04:24:54.367Z,0
2016-07-16T04:25:54.377Z,0
2016-07-16T04:26:54.394Z,0
2016-07-16T04:27:54.397Z,0
2016-07-16T04:28:54.418Z,0
2016-07-16T04:29:54.427Z,0
2016-07-16T04:30:54.434Z,0
2016-07-16T04:31:54.420Z,0
2016-07-16T04:32:54.477Z,0
2016-07-16T04:33:54.450Z,0
2016-07-16T04:34:54.441Z,0
2016-07-16T04:35:54.482Z,0
2016-07-16T04:36:54.495Z,0
2016-07-16T04:37:54.478Z,0
2016-07-16T04:38:54.493Z,0
2016-07-16T04:39:54.488Z,0
2016-07-16T04:40:54.504Z,0
2016-07-16T04:41:54.527Z,0
2016-07-16T04:42:54.516Z,0
2016-07-16T04:43:54.517Z,0
2016-07-16T04:44:54.559Z,0
2016-07-16T04:45:54.558Z,0
2016-07-16T04:46:54.530Z,0
2016-07-16T04:47:54.542Z,0
2016-07-16T04:48:54.557Z,0
2016-07-16T04:49:54.550Z,0
2016-07-16T04:50:54.568Z,0
2016-07-16T04:51:54.572Z,0
2016-07-16T04:52:54.620Z,0
2016-07-16T04:53:54.615Z,0
2016-07-16T04:54:54.602Z,0
2016-07-16T04:55:54.616Z,0
2016-07-16T04:56:54.639Z,0
2016-07-16T04:57:54.636Z,0
2016-07-16T04:58:54.691Z,0
2016-07-16T04:59:54.641Z,0
2016-07-16T05:00:54.671Z,0
2016-07-16T05:01:54.667Z,0
2016-07-16T05:02:54.685Z,0
2016-07-16T05:03:54.669Z,0
2016-07-16T05:04:54.695Z,0
2016-07-16T05:05:54.696Z,0
2016-07-16T05:06:54.722Z,0
2016-07-16T05:07:54.709Z,0
2016-07-16T05:08:54.730Z,0
2016-07-16T05:09:54.728Z,0
2016-07-16T05:10:54.759Z,0
2016-07-16T05:11:54.731Z,0
2016-07-16T05:12:54.749Z,0
2016-07-16T05:13:54.788Z,0
2016-07-16T05:14:54.756Z,0
2016-07-16T05:15:54.746Z,5
2016-07-16T05:16:54.777Z,5
2016-07-16T05:17:54.799Z,5
2016-07-16T05:18:54.801Z,5
2016-07-16T05:19:54.781Z,5
2016-07-16T05:20:54.797Z,5
2016-07-16T05:21:54.798Z,5
2016-07-16T05:22:54.821Z,5
2016-07-16T05:23:54.845Z,5
2016-07-16T05:24:54.859Z,5
2016-07-16T05:25:54.875Z,5
2016-07-16T05:26:54.855Z,5
2016-07-16T05:27:54.875Z,5
2016-07-16T05:28:54.875Z,5
2016-07-16T05:29:54.874Z,5
2016-07-16T05:30:54.890Z,5
2016-07-16T05:31:54.892Z,5
2016-07-16T05:32:54.901Z,5
2016-07-16T05:33:54.927Z,5
2016-07-16T05:34:54.951Z,5
2016-07-16T05:35:54.919Z,5
2016-07-16T05:36:54.935Z,5
2016-07-16T05:37:54.957Z,5
2016-07-16T05:38:54.930Z,5
2016-07-16T05:39:54.955Z,5
2016-07-16T05:40:54.950Z,5
2016-07-16T05:41:54.995Z,5
2016-07-16T05:42:54.993Z,5
2016-07-16T05:43:55.025Z,5
2016-07-16T05:44:54.991Z,10
2016-07-16T05:45:54.995Z,10
2016-07-16T05:46:55.013Z,10
2016-07-16T05:47:54.982Z,10
2016-07-16T05:48:55.007Z,10
2016-07-16T05:49:55.053Z,10
2016-07-16T05:50:55.031Z,10
2016-07-16T05:51:55.060Z,10
2016-07-16T05:52:55.061Z,10
2016-07-16T05:53:55.054Z,10
2016-07-16T05:54:55.043Z,10
2016-07-16T05:55:55.045Z,10
2016-07-16T05:56:55.109Z,10
2016-07-16T05:57:55.070Z,10
2016-07-16T05:58:55.290Z,10
2016-07-16T05:59:55.098Z,10
2016-07-16T06:00:55.094Z,10
2016-07-16T06:01:55.160Z,10
2016-07-16T06:02:55.136Z,10
2016-07-16T06:03:55.151Z,10
2016-07-16T06:04:55.139Z,10
2016-07-16T06:05:55.142Z,10
2016-07-16T06:06:55.173Z,10
2016-07-16T06:07:55.194Z,10
2016-07-16T06:08:55.191Z,10
2016-07-16T06:09:55.186Z,10
2016-07-16T06:10:55.205Z,10
2016-07-16T06:11:55.213Z,10
2016-07-16T06:12:55.204Z,10
2016-07-16T06:13:55.195Z,10
2016-07-16T06:14:55.228Z,10
2016-07-16T06:15:55.204Z,10
2016-07-16T06:16:55.228Z,10
2016-07-16T06:17:55.222Z,10
2016-07-16T06:18:55.262Z,15
2016-07-16T06:19:55.251Z,15
2016-07-16T06:20:55.267Z,15
2016-07-16T06:21:55.282Z,15
2016-07-16T06:22:55.285Z,15
2016-07-16T06:23:55.304Z,15
2016-07-16T06:24:55.282Z,15
2016-07-16T06:25:55.293Z,15
2016-07-16T06:26:55.326Z,15
2016-07-16T06:27:55.331Z,15
2016-07-16T06:28:55.316Z,15
2016-07-16T06:29:55.329Z,15
2016-07-16T06:30:55.343Z,15
2016-07-16T06:31:55.377Z,15
2016-07-16T06:32:55.358Z,15
2016-07-16T06:33:55.388Z,15
2016-07-16T06:34:55.375Z,15
2016-07-16T06:35:55.348Z,15
2016-07-16T06:36:55.379Z,15
2016-07-16T06:37:55.418Z,15
2016-07-16T06:38:55.385Z,15
2016-07-16T06:39:55.387Z,15
2016-07-16T06:40:55.415Z,20
2016-07-16T06:41:55.424Z,20
2016-07-16T06:42:55.427Z,20
2016-07-16T06:43:55.459Z,20
2016-07-16T06:44:55.484Z,20
2016-07-16T06:45:55.458Z,20
2016-07-16T06:46:55.468Z,20
2016-07-16T06:47:55.500Z,20
2016-07-16T06:48:55.461Z,25
2016-07-16T06:49:55.487Z,25
2016-07-16T06:50:55.506Z,25
2016-07-16T06:51:55.507Z,25
2016-07-16T06:52:56.229Z,25
2016-07-16T06:53:55.528Z,25
2016-07-16T06:54:55.546Z,25
2016-07-16T06:55:55.550Z,25
2016-07-16T06:56:55.532Z,25
2016-07-16T06:57:55.566Z,25
2016-07-16T06:58:55.653Z,25
2016-07-16T06:59:55.556Z,25
2016-07-16T07:00:55.556Z,25
2016-07-16T07:01:55.558Z,25
2016-07-16T07:02:55.585Z,25
2016-07-16T07:03:55.627Z,25
2016-07-16T07:04:55.610Z,25
2016-07-16T07:05:55.606Z,25
2016-07-16T07:06:55.619Z,25
2016-07-16T07:07:55.642Z,25
2016-07-16T07:08:55.681Z,25
2016-07-16T07:09:55.643Z,25
2016-07-16T07:10:55.650Z,25
2016-07-16T07:11:55.694Z,25
2016-07-16T07:12:55.684Z,25
2016-07-16T07:13:55.675Z,25
2016-07-16T07:14:56.365Z,25
2016-07-16T07:15:55.709Z,25
2016-07-16T07:16:55.711Z,25
2016-07-16T07:17:55.745Z,25
2016-07-16T07:18:55.709Z,25
2016-07-16T07:19:55.735Z,25
2016-07-16T07:20:55.718Z,20
2016-07-16T07:21:55.722Z,20
2016-07-16T07:22:55.726Z,20
2016-07-16T07:23:55.746Z,25
2016-07-16T07:24:55.809Z,25
2016-07-16T07:25:55.793Z,25
2016-07-16T07:26:55.780Z,20
2016-07-16T07:27:55.785Z,20
2016-07-16T07:28:55.801Z,20
2016-07-16T07:29:55.802Z,20
2016-07-16T07:30:55.795Z,20
2016-07-16T07:31:55.838Z,20
2016-07-16T07:32:55.807Z,20
2016-07-16T07:33:55.853Z,20
2016-07-16T07:34:55.871Z,25
2016-07-16T07:35:55.843Z,25
2016-07-16T07:36:55.874Z,25
2016-07-16T07:37:55.871Z,30
2016-07-16T07:38:55.875Z,30
2016-07-16T07:39:55.892Z,30
2016-07-16T07:40:55.890Z,30
2016-07-16T07:41:55.886Z,30
2016-07-16T07:42:55.921Z,30
2016-07-16T07:43:55.918Z,30
2016-07-16T07:44:55.908Z,30
2016-07-16T07:45:55.925Z,30
2016-07-16T07:46:55.917Z,30
2016-07-16T07:47:56.655Z,30
2016-07-16T07:48:55.972Z,30
2016-07-16T07:49:55.964Z,30
2016-07-16T07:50:55.963Z,30
2016-07-16T07:51:55.949Z,30
2016-07-16T07:52:56.005Z,30
2016-07-16T07:53:55.988Z,30
2016-07-16T07:54:56.002Z,30
2016-07-16T07:55:56.015Z,30
2016-07-16T07:56:56.007Z,30
2016-07-16T07:57:56.025Z,30
2016-07-16T07:58:56.118Z,30
2016-07-16T07:59:56.021Z,30
2016-07-16T08:00:56.039Z,35
2016-07-16T08:01:56.058Z,35
2016-07-16T08:02:56.074Z,35
2016-07-16T08:03:56.072Z,30
2016-07-16T08:04:56.090Z,30
2016-07-16T08:05:56.068Z,30
2016-07-16T08:06:56.071Z,30
2016-07-16T08:07:56.102Z,30
2016-07-16T08:08:56.124Z,30
2016-07-16T08:09:56.090Z,30
2016-07-16T08:10:56.164Z,35
2016-07-16T08:11:56.156Z,35
2016-07-16T08:12:56.156Z,35
2016-07-16T08:13:56.142Z,35
2016-07-16T08:14:56.158Z,35
2016-07-16T08:15:56.183Z,35
2016-07-16T08:16:56.184Z,30
2016-07-16T08:17:56.187Z,30
2016-07-16T08:18:56.174Z,30
2016-07-16T08:19:56.175Z,30
2016-07-16T08:20:56.202Z,30
2016-07-16T08:21:56.206Z,30
2016-07-16T08:22:56.240Z,30
2016-07-16T08:23:56.223Z,30
2016-07-16T08:24:56.229Z,30
2016-07-16T08:25:56.250Z,30
2016-07-16T08:26:56.274Z,30
2016-07-16T08:27:56.246Z,35
2016-07-16T08:28:56.263Z,35
2016-07-16T08:29:56.293Z,35
2016-07-16T08:30:56.303Z,35
2016-07-16T08:31:56.282Z,40
2016-07-16T08:32:56.266Z,40
2016-07-16T08:33:56.321Z,40
2016-07-16T08:34:56.312Z,40
2016-07-16T08:35:56.315Z,40
2016-07-16T08:36:56.327Z,40
2016-07-16T08:37:56.338Z,40
2016-07-16T08:38:56.369Z,40
2016-07-16T08:39:56.385Z,40
2016-07-16T08:40:56.381Z,45
2016-07-16T08:41:56.381Z,45
2016-07-16T08:42:56.386Z,45
2016-07-16T08:43:56.390Z,45
2016-07-16T08:44:56.397Z,45
2016-07-16T08:45:56.419Z,45
2016-07-16T08:46:56.425Z,45
2016-07-16T08:47:56.433Z,45
2016-07-16T08:48:56.445Z,45
2016-07-16T08:49:56.437Z,45
2016-07-16T08:50:57.161Z,50
2016-07-16T08:51:56.465Z,50
2016-07-16T08:52:56.466Z,55
2016-07-16T08:53:56.476Z,50
2016-07-16T08:54:56.467Z,50
2016-07-16T08:55:56.486Z,50
2016-07-16T08:56:56.498Z,50
2016-07-16T08:57:56.503Z,55
2016-07-16T08:58:56.576Z,50
2016-07-16T08:59:56.539Z,50
2016-07-16T09:00:56.525Z,45
2016-07-16T09:01:56.542Z,45
2016-07-16T09:02:56.545Z,50
2016-07-16T09:03:56.542Z,45
2016-07-16T09:04:56.557Z,35
2016-07-16T09:05:56.584Z,40
2016-07-16T09:06:56.555Z,40
2016-07-16T09:07:56.578Z,35
2016-07-16T09:08:56.596Z,35
2016-07-16T09:09:56.615Z,30
2016-07-16T09:10:56.614Z,30
2016-07-16T09:11:56.603Z,40
2016-07-16T09:12:56.610Z,45
2016-07-16T09:13:56.655Z,45
2016-07-16T09:14:56.650Z,45
2016-07-16T09:15:56.659Z,45
2016-07-16T09:16:56.667Z,30
2016-07-16T09:17:56.689Z,30
2016-07-16T09:18:56.680Z,30
2016-07-16T09:19:56.679Z,30
2016-07-16T09:20:56.677Z,30
2016-07-16T09:21:56.695Z,30
2016-07-16T09:22:56.718Z,30
2016-07-16T09:23:56.711Z,35
2016-07-16T09:24:56.732Z,35
2016-07-16T09:25:56.719Z,30
2016-07-16T09:26:56.724Z,30
2016-07-16T09:27:56.730Z,25
2016-07-16T09:28:56.759Z,25
2016-07-16T09:29:56.743Z,25
2016-07-16T09:30:56.771Z,20
2016-07-16T09:31:56.782Z,20
2016-07-16T09:32:56.778Z,20
2016-07-16T09:33:56.793Z,20
2016-07-16T09:34:56.821Z,20
2016-07-16T09:35:56.811Z,25
2016-07-16T09:36:56.848Z,25
2016-07-16T09:37:56.833Z,30
2016-07-16T09:38:56.840Z,40
2016-07-16T09:39:57.532Z,50
2016-07-16T09:40:56.879Z,55
2016-07-16T09:41:56.873Z,60
2016-07-16T09:42:56.864Z,40
2016-07-16T09:43:57.595Z,30
2016-07-16T09:44:56.894Z,30
2016-07-16T09:45:56.871Z,30
2016-07-16T09:46:56.900Z,30
2016-07-16T09:47:56.917Z,30
2016-07-16T09:48:56.925Z,30
2016-07-16T09:49:56.932Z,20
2016-07-16T09:50:56.915Z,15
2016-07-16T09:51:56.913Z,15
2016-07-16T09:52:56.948Z,15
2016-07-16T09:53:56.971Z,10
2016-07-16T09:54:56.955Z,10
2016-07-16T09:55:56.971Z,10
2016-07-16T09:56:56.983Z,10
2016-07-16T09:57:56.992Z,15
2016-07-16T09:58:57.046Z,15
2016-07-16T09:59:57.024Z,15
2016-07-16T10:00:57.006Z,15
2016-07-16T10:01:57.007Z,15
2016-07-16T10:02:57.039Z,15
2016-07-16T10:03:57.017Z,15
2016-07-16T10:04:57.048Z,15
2016-07-16T10:05:57.062Z,15
2016-07-16T10:06:57.072Z,15
2016-07-16T10:07:57.064Z,15
2016-07-16T10:08:57.095Z,20
2016-07-16T10:09:57.108Z,20
2016-07-16T10:10:57.094Z,20
2016-07-16T10:11:57.122Z,20
2016-07-16T10:12:57.103Z,25
2016-07-16T10:13:57.121Z,25
2016-07-16T10:14:57.097Z,25
2016-07-16T10:15:57.110Z,30
2016-07-16T10:16:57.145Z,50
2016-07-16T10:17:57.138Z,60
2016-07-16T10:18:57.193Z,65
2016-07-16T10:19:57.167Z,65
2016-07-16T10:20:57.170Z,65
2016-07-16T10:21:57.179Z,50
2016-07-16T10:22:57.174Z,65
2016-07-16T10:23:57.200Z,65
2016-07-16T10:24:57.215Z,55
2016-07-16T10:25:57.218Z,45
2016-07-16T10:26:57.254Z,40
2016-07-16T10:27:57.270Z,40
2016-07-16T10:28:57.244Z,45
2016-07-16T10:29:57.269Z,60
2016-07-16T10:30:57.258Z,50
2016-07-16T10:31:57.256Z,40
2016-07-16T10:32:57.286Z,40
2016-07-16T10:33:57.277Z,45
2016-07-16T10:34:57.301Z,45
2016-07-16T10:35:57.296Z,45
2016-07-16T10:36:57.302Z,40
2016-07-16T10:37:57.289Z,35
2016-07-16T10:38:57.302Z,30
2016-07-16T10:39:57.324Z,25
2016-07-16T10:40:57.342Z,25
2016-07-16T10:41:57.346Z,25
2016-07-16T10:42:57.326Z,25
2016-07-16T10:43:57.356Z,20
2016-07-16T10:44:57.390Z,25
2016-07-16T10:45:57.384Z,25
2016-07-16T10:46:57.373Z,25
2016-07-16T10:47:57.406Z,30
2016-07-16T10:48:57.412Z,35
2016-07-16T10:49:58.104Z,55
2016-07-16T10:50:57.407Z,45
2016-07-16T10:51:57.431Z,65
2016-07-16T10:52:57.428Z,65
2016-07-16T10:53:57.454Z,50
2016-07-16T10:54:57.452Z,50
2016-07-16T10:55:57.449Z,50
2016-07-16T10:56:58.147Z,50
2016-07-16T10:57:57.471Z,50
2016-07-16T10:58:57.528Z,60
2016-07-16T10:59:57.477Z,40
2016-07-16T11:02:10.354Z,40
2016-07-16T11:03:10.673Z,40
2016-07-16T11:04:10.359Z,40
2016-07-16T11:05:10.346Z,40
2016-07-16T11:06:10.354Z,45
2016-07-16T11:07:10.391Z,55
2016-07-16T11:08:10.382Z,80
2016-07-16T11:09:10.389Z,80
2016-07-16T11:10:10.408Z,70
2016-07-16T11:11:10.399Z,60
2016-07-16T11:12:10.420Z,50
2016-07-16T11:13:10.432Z,75
2016-07-16T11:14:11.135Z,70
2016-07-16T11:15:10.436Z,60
2016-07-16T11:16:10.639Z,70
2016-07-16T11:17:10.469Z,60
2016-07-16T11:18:10.465Z,70
2016-07-16T11:19:10.673Z,60
2016-07-16T11:20:10.490Z,60
2016-07-16T11:21:10.458Z,60
2016-07-16T11:22:10.503Z,60
2016-07-16T11:23:10.539Z,45
2016-07-16T11:24:10.483Z,40
2016-07-16T11:25:10.514Z,40
2016-07-16T11:26:10.732Z,40
2016-07-16T11:27:10.528Z,45
2016-07-16T11:28:10.534Z,50
2016-07-16T11:29:10.561Z,75
2016-07-16T11:30:10.764Z,75
2016-07-16T11:31:10.543Z,75
2016-07-16T11:32:10.890Z,70
2016-07-16T11:33:10.581Z,70
2016-07-16T11:34:10.565Z,75
2016-07-16T11:35:10.773Z,75
2016-07-16T11:36:10.580Z,70
2016-07-16T11:37:10.631Z,70
2016-07-16T11:38:10.645Z,65
2016-07-16T11:39:10.614Z,65
2016-07-16T11:40:10.893Z,65
2016-07-16T11:41:10.980Z,45
2016-07-16T11:42:10.661Z,50
2016-07-16T11:43:10.666Z,50
2016-07-16T11:44:10.846Z,45
2016-07-16T11:45:10.701Z,40
2016-07-16T11:46:10.685Z,40
2016-07-16T11:47:10.699Z,50
2016-07-16T11:48:10.893Z,45
2016-07-16T11:49:10.686Z,40
2016-07-16T11:50:10.718Z,35
2016-07-16T11:51:10.743Z,35
2016-07-16T11:52:10.968Z,35
2016-07-16T11:53:10.766Z,25
2016-07-16T11:54:10.776Z,20
2016-07-16T11:55:10.986Z,20
2016-07-16T11:56:10.785Z,15
2016-07-16T11:57:11.491Z,15
2016-07-16T11:58:10.938Z,15
2016-07-16T11:59:10.776Z,15
2016-07-16T12:00:10.857Z,15
2016-07-16T12:01:10.807Z,15
2016-07-16T12:02:10.882Z,15
2016-07-16T12:03:10.860Z,15
2016-07-16T12:04:10.862Z,15
2016-07-16T12:05:10.836Z,15
2016-07-16T12:06:11.012Z,15
2016-07-16T12:07:11.019Z,15
2016-07-16T12:08:11.574Z,15
2016-07-16T12:09:10.913Z,15
2016-07-16T12:10:10.957Z,20
2016-07-16T12:11:10.939Z,20
2016-07-16T12:12:10.907Z,25
2016-07-16T12:13:10.914Z,30
2016-07-16T12:14:10.922Z,30
2016-07-16T12:15:10.932Z,30
2016-07-16T12:16:10.957Z,30
2016-07-16T12:17:11.019Z,40
2016-07-16T12:18:10.962Z,40
2016-07-16T12:19:10.954Z,65
2016-07-16T12:20:10.980Z,70
2016-07-16T12:21:11.179Z,70
2016-07-16T12:22:11.002Z,65
2016-07-16T12:23:11.046Z,65
2016-07-16T12:24:11.026Z,65
2016-07-16T12:25:11.001Z,65
2016-07-16T12:26:11.062Z,65
2016-07-16T12:27:11.060Z,60
2016-07-16T12:28:11.044Z,60
2016-07-16T12:29:11.058Z,55
2016-07-16T12:30:11.157Z,55
2016-07-16T12:31:11.071Z,55
2016-07-16T12:32:11.104Z,50
2016-07-16T12:33:11.086Z,50
2016-07-16T12:34:11.121Z,50
2016-07-16T12:35:11.152Z,50
2016-07-16T12:36:11.118Z,35
2016-07-16T12:37:11.092Z,30
2016-07-16T12:38:11.142Z,30
2016-07-16T12:39:11.106Z,30
2016-07-16T12:40:11.157Z,30
2016-07-16T12:41:11.136Z,30
2016-07-16T12:42:11.144Z,30
2016-07-16T12:43:11.195Z,30
2016-07-16T12:44:11.180Z,35
2016-07-16T12:45:11.157Z,35
2016-07-16T12:46:11.207Z,40
2016-07-16T12:47:11.198Z,40
2016-07-16T12:48:11.234Z,35
2016-07-16T12:49:11.222Z,30
2016-07-16T12:50:11.248Z,30
2016-07-16T12:51:11.238Z,30
2016-07-16T12:52:11.222Z,30
2016-07-16T12:53:11.268Z,30
2016-07-16T12:54:11.271Z,30
2016-07-16T12:55:11.268Z,25
2016-07-16T12:56:11.270Z,25
2016-07-16T12:57:11.309Z,25
2016-07-16T12:58:11.304Z,25
2016-07-16T12:59:11.507Z,35
2016-07-16T13:00:11.309Z,25
2016-07-16T13:01:11.330Z,25
2016-07-16T13:02:11.352Z,30
2016-07-16T13:03:11.331Z,35
2016-07-16T13:04:11.347Z,30
2016-07-16T13:05:11.369Z,35
2016-07-16T13:06:11.383Z,35
2016-07-16T13:07:11.379Z,35
2016-07-16T13:08:11.365Z,35
2016-07-16T13:09:11.411Z,35
2016-07-16T13:10:11.411Z,55
2016-07-16T13:11:11.408Z,55
2016-07-16T13:12:11.423Z,55
2016-07-16T13:13:11.423Z,55
2016-07-16T13:14:11.474Z,40
2016-07-16T13:15:11.439Z,35
2016-07-16T13:16:11.435Z,45
2016-07-16T13:17:11.469Z,45
2016-07-16T13:18:11.483Z,50
2016-07-16T13:19:11.480Z,50
2016-07-16T13:20:11.486Z,50
2016-07-16T13:21:11.505Z,50
2016-07-16T13:22:11.509Z,50
2016-07-16T13:23:11.524Z,50
2016-07-16T13:24:12.218Z,50
2016-07-16T13:25:11.522Z,50
2016-07-16T13:26:11.569Z,50
2016-07-16T13:27:11.538Z,50
2016-07-16T13:28:11.551Z,50
2016-07-16T13:29:11.571Z,45
2016-07-16T13:30:11.547Z,45
2016-07-16T13:31:11.544Z,45
2016-07-16T13:32:11.595Z,45
2016-07-16T13:33:11.610Z,45
2016-07-16T13:34:11.620Z,45
2016-07-16T13:35:11.598Z,45
2016-07-16T13:36:11.608Z,45
2016-07-16T13:37:12.326Z,45
2016-07-16T13:38:11.615Z,45
2016-07-16T13:39:11.649Z,45
2016-07-16T13:40:11.634Z,45
2016-07-16T13:41:11.646Z,45
2016-07-16T13:42:11.710Z,45
2016-07-16T13:43:11.696Z,45
2016-07-16T13:44:11.689Z,45
2016-07-16T13:45:11.677Z,30
2016-07-16T13:46:11.703Z,30
2016-07-16T13:47:11.728Z,25
2016-07-16T13:48:11.745Z,25
2016-07-16T13:49:11.715Z,25
2016-07-16T13:50:11.745Z,40
2016-07-16T13:51:11.748Z,40
2016-07-16T13:52:11.771Z,40
2016-07-16T13:53:11.767Z,40
2016-07-16T13:54:11.778Z,45
2016-07-16T13:55:11.808Z,45
2016-07-16T13:56:11.816Z,45
2016-07-16T13:57:11.817Z,45
2016-07-16T13:58:11.825Z,45
2016-07-16T13:59:11.816Z,40
2016-07-16T14:00:11.799Z,40
2016-07-16T14:01:11.819Z,45
2016-07-16T14:02:11.838Z,45
2016-07-16T14:03:11.853Z,35
2016-07-16T14:04:11.876Z,35
2016-07-16T14:05:11.865Z,30
2016-07-16T14:06:11.851Z,30
2016-07-16T14:07:11.876Z,25
2016-07-16T14:08:11.902Z,30
2016-07-16T14:09:11.896Z,40
2016-07-16T14:10:11.942Z,25
2016-07-16T14:11:11.920Z,40
2016-07-16T14:12:11.902Z,40
2016-07-16T14:13:11.959Z,40
2016-07-16T14:14:11.938Z,40
2016-07-16T14:15:11.934Z,40
2016-07-16T14:16:11.973Z,40
2016-07-16T14:17:11.944Z,40
2016-07-16T14:18:12.664Z,40
2016-07-16T14:19:11.964Z,40
2016-07-16T14:20:12.002Z,40
2016-07-16T14:21:11.972Z,25
2016-07-16T14:22:11.991Z,25
2016-07-16T14:23:12.030Z,30
2016-07-16T14:24:12.035Z,25
2016-07-16T14:25:12.039Z,25
2016-07-16T14:26:12.042Z,40
2016-07-16T14:27:12.784Z,35
2016-07-16T14:28:12.051Z,25
2016-07-16T14:29:12.065Z,25